createdAt,value
2018-07-13T00:02:22.465Z,24.70
2018-07-13T00:04:52.003Z,24.70
2018-07-13T00:07:21.562Z,24.60
2018-07-13T00:09:50.090Z,24.60
2018-07-13T00:15:05.611Z,24.50
2018-07-13T00:17:34.139Z,24.50
2018-07-13T00:20:02.817Z,24.40
2018-07-13T00:22:35.900Z,24.40
2018-07-13T00:25:04.818Z,24.40
2018-07-13T00:27:33.327Z,24.30
2018-07-13T00:30:01.879Z,24.30
2018-07-13T00:32:30.583Z,24.20
2018-07-13T00:43:21.659Z,23.90
2018-07-13T00:45:51.238Z,23.90
2018-07-13T00:48:19.793Z,23.80
2018-07-13T00:50:48.351Z,23.80
2018-07-13T00:53:16.899Z,23.80
2018-07-13T00:55:45.440Z,23.80
2018-07-13T00:58:13.907Z,23.80
2018-07-13T01:00:43.138Z,23.80
2018-07-13T01:03:12.820Z,23.80
2018-07-13T01:05:41.430Z,23.80
2018-07-13T01:08:10.043Z,23.80
2018-07-13T01:10:38.675Z,23.70
2018-07-13T01:13:07.191Z,23.70
2018-07-13T01:15:35.734Z,23.70
2018-07-13T01:18:04.321Z,23.70
2018-07-13T01:20:32.906Z,23.70
2018-07-13T01:23:01.508Z,23.70
2018-07-13T01:25:30.069Z,23.70
2018-07-13T01:33:18.192Z,23.70
2018-07-13T01:35:46.747Z,23.70
2018-07-13T01:38:16.363Z,23.60
2018-07-13T01:40:45.959Z,23.60
2018-07-13T01:43:14.483Z,23.60
2018-07-13T01:45:43.035Z,23.60
2018-07-13T01:48:11.649Z,23.60
2018-07-13T01:50:40.331Z,23.60
2018-07-13T01:53:08.881Z,23.60
2018-07-13T01:55:37.465Z,23.60
2018-07-13T01:58:06.134Z,23.50
2018-07-13T02:00:35.295Z,23.50
2018-07-13T02:05:32.237Z,23.40
2018-07-13T02:13:04.400Z,23.40
2018-07-13T02:15:33.694Z,23.40
2018-07-13T02:18:02.281Z,23.30
2018-07-13T02:20:31.006Z,23.30
2018-07-13T02:23:07.024Z,23.30
2018-07-13T02:28:05.173Z,23.30
2018-07-13T02:33:02.659Z,23.20
2018-07-13T02:38:04.663Z,23.20
2018-07-13T02:40:33.201Z,23.20
2018-07-13T02:43:01.784Z,23.10
2018-07-13T02:48:02.520Z,23.10
2018-07-13T02:50:31.063Z,23.10
2018-07-13T02:55:47.891Z,23.00
2018-07-13T02:58:16.647Z,23.00
2018-07-13T03:00:45.177Z,23.00
2018-07-13T03:03:14.766Z,23.00
2018-07-13T03:05:43.568Z,23.00
2018-07-13T03:08:12.356Z,22.90
2018-07-13T03:10:40.881Z,22.90
2018-07-13T03:15:37.590Z,22.90
2018-07-13T03:18:06.152Z,22.80
2018-07-13T03:20:34.803Z,22.80
2018-07-13T03:23:03.440Z,22.80
2018-07-13T03:25:32.025Z,22.80
2018-07-13T03:28:00.540Z,22.70
2018-07-13T03:32:57.215Z,22.70
2018-07-13T03:35:25.742Z,22.80
2018-07-13T03:37:54.315Z,22.70
2018-07-13T03:40:22.874Z,22.70
2018-07-13T03:43:02.608Z,22.70
2018-07-13T03:45:31.143Z,22.70
2018-07-13T03:47:59.601Z,22.70
2018-07-13T03:50:28.239Z,22.70
2018-07-13T03:52:57.085Z,22.70
2018-07-13T03:55:25.668Z,22.70
2018-07-13T03:57:54.283Z,22.70
2018-07-13T04:00:25.841Z,22.70
2018-07-13T04:05:37.289Z,22.60
2018-07-13T04:08:16.858Z,22.60
2018-07-13T04:11:09.712Z,22.60
2018-07-13T04:13:42.392Z,22.50
2018-07-13T04:16:11.067Z,22.50
2018-07-13T04:18:39.627Z,22.50
2018-07-13T04:21:09.811Z,22.60
2018-07-13T04:23:38.374Z,22.50
2018-07-13T04:26:09.048Z,22.60
2018-07-13T04:28:37.819Z,22.50
2018-07-13T04:31:17.126Z,22.60
2018-07-13T04:33:45.712Z,22.60
2018-07-13T04:36:14.275Z,22.60
2018-07-13T04:38:44.857Z,22.50
2018-07-13T04:41:14.824Z,22.50
2018-07-13T04:43:43.407Z,22.60
2018-07-13T04:46:13.784Z,22.60
2018-07-13T04:48:42.588Z,22.70
2018-07-13T04:54:11.174Z,22.60
2018-07-13T04:56:39.922Z,22.50
2018-07-13T05:01:55.955Z,22.50
2018-07-13T05:07:13.692Z,22.90
2018-07-13T05:09:42.508Z,22.90
2018-07-13T05:12:11.114Z,22.90
2018-07-13T05:14:39.835Z,22.90
2018-07-13T05:17:08.576Z,23.00
2018-07-13T05:19:37.103Z,23.10
2018-07-13T05:24:34.086Z,23.20
2018-07-13T05:27:02.894Z,23.20
2018-07-13T05:29:31.711Z,23.30
2018-07-13T05:32:01.199Z,23.30
2018-07-13T05:34:34.268Z,23.40
2018-07-13T05:37:02.909Z,23.50
2018-07-13T05:39:31.716Z,23.80
2018-07-13T05:42:03.381Z,24.90
2018-07-13T05:44:32.165Z,26.90
2018-07-13T05:47:02.289Z,28.90
2018-07-13T05:49:31.126Z,30.60
2018-07-13T05:51:59.795Z,31.40
2018-07-13T05:54:28.442Z,31.40
2018-07-13T05:56:57.058Z,32.20
2018-07-13T05:59:25.864Z,33.50
2018-07-13T06:01:54.535Z,34.70
2018-07-13T06:04:23.144Z,35.80
2018-07-13T06:06:52.070Z,36.50
2018-07-13T06:09:20.756Z,37.10
2018-07-13T06:11:49.499Z,37.70
2018-07-13T06:14:18.680Z,38.30
2018-07-13T06:16:47.227Z,38.80
2018-07-13T06:19:15.705Z,39.50
2018-07-13T06:21:44.244Z,40.00
2018-07-13T06:24:13.017Z,40.50
2018-07-13T06:26:42.001Z,41.00
2018-07-13T06:29:10.576Z,41.40
2018-07-13T06:31:39.227Z,41.60
2018-07-13T06:34:07.820Z,41.50
2018-07-13T06:36:36.536Z,41.50
2018-07-13T06:39:07.793Z,41.50
2018-07-13T06:41:36.375Z,41.50
2018-07-13T06:44:05.120Z,41.30
2018-07-13T06:46:33.844Z,41.20
2018-07-13T06:49:02.504Z,40.80
2018-07-13T06:51:31.099Z,40.80
2018-07-13T06:53:59.680Z,41.10
2018-07-13T06:56:28.179Z,40.90
2018-07-13T06:59:16.175Z,40.80
2018-07-13T07:01:45.557Z,40.60
2018-07-13T07:04:44.699Z,40.00
2018-07-13T07:07:28.106Z,39.00
2018-07-13T07:09:58.176Z,38.10
2018-07-13T07:12:56.791Z,37.00
2018-07-13T07:15:25.850Z,35.50
2018-07-13T07:17:55.590Z,33.90
2018-07-13T07:20:24.244Z,32.50
2018-07-13T07:22:52.981Z,31.50
2018-07-13T07:25:21.584Z,30.40
2018-07-13T07:27:50.218Z,29.70
2018-07-13T07:30:18.707Z,29.00
2018-07-13T07:37:43.746Z,28.10
2018-07-13T07:40:12.259Z,28.00
2018-07-13T07:42:40.975Z,27.90
2018-07-13T07:45:09.551Z,27.80
2018-07-13T07:47:38.130Z,27.60
2018-07-13T07:50:06.826Z,27.30
2018-07-13T07:52:36.344Z,27.20
2018-07-13T07:55:04.844Z,27.10
2018-07-13T08:00:01.612Z,27.10
2018-07-13T08:02:30.127Z,26.90
2018-07-13T08:04:58.630Z,27.00
2018-07-13T08:07:27.270Z,27.10
2018-07-13T08:09:55.779Z,27.10
2018-07-13T08:12:24.342Z,26.90
2018-07-13T08:14:52.824Z,26.80
2018-07-13T08:17:21.344Z,26.70
2018-07-13T08:19:49.842Z,26.80
2018-07-13T08:22:22.722Z,26.90
2018-07-13T08:24:55.320Z,27.10
2018-07-13T08:29:54.445Z,27.20
2018-07-13T08:32:23.002Z,27.20
2018-07-13T08:34:51.494Z,27.20
2018-07-13T08:37:20.003Z,27.20
2018-07-13T08:39:48.492Z,27.20
2018-07-13T08:42:17.045Z,27.20
2018-07-13T08:44:45.546Z,27.30
2018-07-13T08:47:14.131Z,27.30
2018-07-13T08:49:43.119Z,27.20
2018-07-13T08:52:11.764Z,27.20
2018-07-13T08:54:40.345Z,27.30
2018-07-13T08:59:37.236Z,27.40
2018-07-13T09:02:05.853Z,27.40
2018-07-13T09:04:34.467Z,27.30
2018-07-13T09:07:02.990Z,27.40
2018-07-13T09:09:31.784Z,27.40
2018-07-13T09:12:00.343Z,27.40
2018-07-13T09:14:28.909Z,27.40
2018-07-13T09:19:25.703Z,27.50
2018-07-13T09:21:54.229Z,27.40
2018-07-13T09:24:23.762Z,27.60
2018-07-13T09:29:20.527Z,27.60
2018-07-13T09:31:49.107Z,27.50
2018-07-13T09:34:17.634Z,27.40
2018-07-13T09:36:46.170Z,27.40
2018-07-13T09:39:14.640Z,27.50
2018-07-13T09:44:11.327Z,27.50
2018-07-13T09:46:40.067Z,27.50
2018-07-13T09:49:08.443Z,27.70
2018-07-13T09:51:36.979Z,27.80
2018-07-13T09:54:05.691Z,28.00
2018-07-13T09:56:34.668Z,28.20
2018-07-13T09:59:03.239Z,28.10
2018-07-13T10:01:31.877Z,28.00
2018-07-13T10:04:00.851Z,28.00
2018-07-13T10:06:29.327Z,28.00
2018-07-13T10:08:57.926Z,28.00
2018-07-13T10:11:26.474Z,28.10
2018-07-13T10:13:55.058Z,28.10
2018-07-13T10:16:23.648Z,28.20
2018-07-13T10:18:52.262Z,28.20
2018-07-13T10:21:20.788Z,28.30
2018-07-13T10:23:49.439Z,28.30
2018-07-13T10:28:48.104Z,28.40
2018-07-13T10:31:17.036Z,28.50
2018-07-13T10:33:45.745Z,28.40
2018-07-13T10:36:19.495Z,28.50
2018-07-13T10:38:48.049Z,28.60
2018-07-13T10:41:16.804Z,28.60
2018-07-13T10:43:46.507Z,28.60
2018-07-13T10:46:15.131Z,28.50
2018-07-13T10:48:43.759Z,28.50
2018-07-13T10:51:12.299Z,28.60
2018-07-13T10:53:40.846Z,28.70
2018-07-13T10:56:09.529Z,28.80
2018-07-13T10:58:38.233Z,28.90
2018-07-13T11:01:06.990Z,28.90
2018-07-13T11:06:03.960Z,28.90
2018-07-13T11:11:00.811Z,28.90
2018-07-13T11:13:29.378Z,29.00
2018-07-13T11:20:54.427Z,28.80
2018-07-13T11:30:47.765Z,28.90
2018-07-13T11:33:16.278Z,28.90
2018-07-13T11:38:35.335Z,29.20
2018-07-13T11:41:04.089Z,29.30
2018-07-13T11:43:32.651Z,29.30
2018-07-13T11:46:01.143Z,29.40
2018-07-13T11:53:26.189Z,29.40
2018-07-13T11:55:54.703Z,29.30
2018-07-13T11:58:23.243Z,29.40
2018-07-13T12:03:19.899Z,29.60
2018-07-13T12:05:48.476Z,29.60
2018-07-13T12:08:17.006Z,29.60
2018-07-13T12:10:45.747Z,29.50
2018-07-13T12:13:14.335Z,29.50
2018-07-13T12:15:43.959Z,29.50
2018-07-13T12:18:12.560Z,29.50
2018-07-13T12:20:41.427Z,29.70
2018-07-13T12:23:10.106Z,29.90
2018-07-13T12:25:38.720Z,30.00
2018-07-13T12:28:07.299Z,30.00
2018-07-13T12:30:35.934Z,30.00
2018-07-13T12:33:04.484Z,30.10
2018-07-13T12:35:33.011Z,30.10
2018-07-13T12:38:01.598Z,30.10
2018-07-13T12:40:30.128Z,30.20
2018-07-13T12:42:58.890Z,30.20
2018-07-13T12:45:27.407Z,30.10
2018-07-13T12:47:55.871Z,30.10
2018-07-13T12:50:24.612Z,30.10
2018-07-13T12:52:53.083Z,30.10
2018-07-13T12:55:21.577Z,30.20
2018-07-13T13:00:18.279Z,30.20
2018-07-13T13:02:46.826Z,30.00
2018-07-13T13:05:15.475Z,30.00
2018-07-13T13:07:44.243Z,30.00
2018-07-13T13:10:12.714Z,30.00
2018-07-13T13:12:41.309Z,30.10
2018-07-13T13:15:10.928Z,30.20
2018-07-13T13:17:39.468Z,30.20
2018-07-13T13:20:09.032Z,30.10
2018-07-13T13:25:05.756Z,30.10
2018-07-13T13:27:34.260Z,30.10
2018-07-13T13:30:03.219Z,30.10
2018-07-13T13:32:31.875Z,30.10
2018-07-13T13:35:00.495Z,30.20
2018-07-13T13:37:29.120Z,30.20
2018-07-13T13:39:57.724Z,30.20
2018-07-13T13:42:26.685Z,30.30
2018-07-13T13:44:55.134Z,30.20
2018-07-13T13:47:24.323Z,30.30
2018-07-13T13:50:31.843Z,30.40
2018-07-13T13:53:31.029Z,30.40
2018-07-13T13:57:00.303Z,30.40
2018-07-13T13:59:31.097Z,30.30
2018-07-13T14:01:59.611Z,30.40
2018-07-13T14:04:28.116Z,30.50
2018-07-13T14:06:56.607Z,30.50
2018-07-13T14:09:31.396Z,30.60
2018-07-13T14:12:00.288Z,30.80
2018-07-13T14:14:28.823Z,30.80
2018-07-13T14:16:57.327Z,30.90
2018-07-13T14:19:25.887Z,30.90
2018-07-13T14:21:54.479Z,30.70
2018-07-13T14:24:23.036Z,30.70
2018-07-13T14:26:51.643Z,30.70
2018-07-13T14:29:20.155Z,30.70
2018-07-13T14:36:45.031Z,30.80
2018-07-13T14:39:13.602Z,30.80
2018-07-13T14:41:43.180Z,30.80
2018-07-13T14:44:11.665Z,30.70
2018-07-13T14:46:40.904Z,30.70
2018-07-13T14:49:09.448Z,30.60
2018-07-13T14:51:38.058Z,30.50
2018-07-13T14:54:06.589Z,30.40
2018-07-13T14:59:05.762Z,30.40
2018-07-13T15:01:34.331Z,30.20
2018-07-13T15:04:02.938Z,30.00
2018-07-13T15:08:59.649Z,30.20
2018-07-13T15:11:28.283Z,30.30
2018-07-13T15:13:56.839Z,30.30
2018-07-13T15:16:25.422Z,30.20
2018-07-13T15:18:53.921Z,30.20
2018-07-13T15:21:22.532Z,30.30
2018-07-13T15:23:52.336Z,30.30
2018-07-13T15:26:20.964Z,30.30
2018-07-13T15:35:10.870Z,30.40
2018-07-13T15:38:03.802Z,30.60
2018-07-13T15:45:48.380Z,29.80
2018-07-13T15:48:16.981Z,29.80
2018-07-13T15:53:14.791Z,30.10
2018-07-13T15:55:48.923Z,30.20
2018-07-13T15:58:19.079Z,30.30
2018-07-13T16:00:48.274Z,30.30
2018-07-13T16:03:19.046Z,30.30
2018-07-13T16:05:49.306Z,30.40
2018-07-13T16:08:20.989Z,30.30
2018-07-13T16:10:52.002Z,30.10
2018-07-13T16:13:22.744Z,30.10
2018-07-13T16:15:52.063Z,30.10
2018-07-13T16:18:36.093Z,30.10
2018-07-13T16:21:04.755Z,30.10
2018-07-13T16:23:33.476Z,30.20
2018-07-13T16:26:01.978Z,30.40
2018-07-13T16:31:00.024Z,30.50
2018-07-13T16:33:28.604Z,30.50
2018-07-13T16:35:57.117Z,30.50
2018-07-13T16:38:25.674Z,30.50
2018-07-13T16:40:54.191Z,30.60
2018-07-13T16:43:23.668Z,30.60
2018-07-13T16:45:52.408Z,30.70
2018-07-13T16:48:20.894Z,30.70
2018-07-13T16:50:49.402Z,30.80
2018-07-13T16:53:33.327Z,30.70
2018-07-13T17:00:58.334Z,30.30
2018-07-13T17:03:26.960Z,30.30
2018-07-13T17:05:55.413Z,30.20
2018-07-13T17:08:23.910Z,30.30
2018-07-13T17:10:52.570Z,30.30
2018-07-13T17:13:21.109Z,30.30
2018-07-13T17:15:50.568Z,30.20
2018-07-13T17:18:19.054Z,30.10
2018-07-13T17:20:47.608Z,30.10
2018-07-13T17:23:17.384Z,30.00
2018-07-13T17:25:46.026Z,30.00
2018-07-13T17:28:14.578Z,29.90
2018-07-13T17:30:43.401Z,29.90
2018-07-13T17:33:12.751Z,29.80
2018-07-13T17:35:41.386Z,29.80
2018-07-13T17:38:09.994Z,29.80
2018-07-13T17:40:38.906Z,29.90
2018-07-13T17:43:08.401Z,29.90
2018-07-13T17:45:38.298Z,30.00
2018-07-13T17:48:07.120Z,29.90
2018-07-13T17:50:35.656Z,29.90
2018-07-13T17:53:04.243Z,30.00
2018-07-13T17:55:32.899Z,30.00
2018-07-13T17:58:01.564Z,30.00
2018-07-13T18:02:58.517Z,30.00
2018-07-13T18:05:27.200Z,30.00
2018-07-13T18:07:55.836Z,30.10
2018-07-13T18:10:24.447Z,30.10
2018-07-13T18:12:53.308Z,30.00
2018-07-13T18:15:22.394Z,30.00
2018-07-13T18:17:52.097Z,30.00
2018-07-13T18:20:20.747Z,30.00
2018-07-13T18:22:49.581Z,30.00
2018-07-13T18:25:18.144Z,29.90
2018-07-13T18:27:46.861Z,29.90
2018-07-13T18:30:15.387Z,29.80
2018-07-13T18:35:12.187Z,29.70
2018-07-13T18:37:40.708Z,29.70
2018-07-13T18:40:09.238Z,29.50
2018-07-13T18:42:38.533Z,29.40
2018-07-13T18:45:07.265Z,29.30
2018-07-13T18:47:35.878Z,29.30
2018-07-13T18:50:04.631Z,29.20
2018-07-13T18:52:33.523Z,29.20
2018-07-13T18:55:02.095Z,29.20
2018-07-13T18:57:30.961Z,29.10
2018-07-13T18:59:59.773Z,29.10
2018-07-13T19:02:29.558Z,29.20
2018-07-13T19:04:58.148Z,29.10
2018-07-13T19:07:26.716Z,29.00
2018-07-13T19:09:56.502Z,29.00
2018-07-13T19:12:25.392Z,29.00
2018-07-13T19:17:22.193Z,28.90
2018-07-13T19:19:50.827Z,28.90
2018-07-13T19:24:55.294Z,28.80
2018-07-13T19:27:23.949Z,28.80
2018-07-13T19:32:21.259Z,28.80
2018-07-13T19:34:51.198Z,28.80
2018-07-13T19:37:23.641Z,28.80
2018-07-13T19:39:52.377Z,28.70
2018-07-13T19:42:21.225Z,28.70
2018-07-13T19:44:50.229Z,28.60
2018-07-13T19:47:19.052Z,28.60
2018-07-13T19:49:47.659Z,28.60
2018-07-13T19:55:13.902Z,28.50
2018-07-13T19:57:42.556Z,28.50
2018-07-13T20:00:11.132Z,28.40
2018-07-13T20:02:40.188Z,28.40
2018-07-13T20:05:08.889Z,28.40
2018-07-13T20:07:37.589Z,28.30
2018-07-13T20:10:08.360Z,28.20
2018-07-13T20:12:38.124Z,28.20
2018-07-13T20:15:06.789Z,28.20
2018-07-13T20:17:35.377Z,28.20
2018-07-13T20:20:12.560Z,28.20
2018-07-13T20:22:41.479Z,28.20
2018-07-13T20:25:17.205Z,28.20
2018-07-13T20:27:46.092Z,28.10
2018-07-13T20:30:14.838Z,28.10
2018-07-13T20:32:44.829Z,28.00
2018-07-13T20:35:13.447Z,28.00
2018-07-13T20:37:42.245Z,28.00
2018-07-13T20:40:10.817Z,28.00
2018-07-13T20:42:39.479Z,27.90
2018-07-13T20:45:08.191Z,27.90
2018-07-13T20:47:38.390Z,27.90
2018-07-13T20:50:07.295Z,27.90
2018-07-13T20:52:38.261Z,27.80
2018-07-13T20:57:37.805Z,27.80
2018-07-13T21:00:07.360Z,27.80
2018-07-13T21:05:14.553Z,27.80
2018-07-13T21:07:46.353Z,27.80
2018-07-13T21:10:15.159Z,27.70
2018-07-13T21:12:54.915Z,27.70
2018-07-13T21:21:24.188Z,27.60
2018-07-13T21:23:53.200Z,27.50
2018-07-13T21:26:22.013Z,27.50
2018-07-13T21:28:50.926Z,27.40
2018-07-13T21:33:53.572Z,27.40
2018-07-13T21:36:22.835Z,27.40
2018-07-13T21:38:51.429Z,27.30
2018-07-13T21:41:22.064Z,27.30
2018-07-13T21:43:50.759Z,27.30
2018-07-13T21:46:20.445Z,27.30
2018-07-13T21:48:52.322Z,27.30
2018-07-13T21:51:20.907Z,27.20
2018-07-13T21:53:50.040Z,27.20
2018-07-13T21:56:19.404Z,27.20
2018-07-13T21:58:51.063Z,27.20
2018-07-13T22:01:26.601Z,27.20
2018-07-13T22:03:58.474Z,27.20
2018-07-13T22:07:42.903Z,27.10
2018-07-13T22:10:14.084Z,27.10
2018-07-13T22:12:45.144Z,27.10
2018-07-13T22:15:53.926Z,27.00
2018-07-13T22:21:27.751Z,26.90
2018-07-13T22:26:27.023Z,26.80
2018-07-13T22:28:56.369Z,26.80
2018-07-13T22:37:07.062Z,26.80
2018-07-13T22:39:43.044Z,26.60
2018-07-13T22:42:12.718Z,26.60
2018-07-13T22:44:48.119Z,26.60
2018-07-13T22:47:58.149Z,26.60
2018-07-13T22:50:30.721Z,26.60
2018-07-13T22:55:42.016Z,26.50
2018-07-13T22:58:12.095Z,26.40
2018-07-13T23:00:41.121Z,26.40
